Time;durP1;ratioP1;P1;durP2;ratioP2;P2;SDS_P1;SDS_P2;PMS_P1;PMS_P2;Temp;Humidity;BMP_temperature;BMP_pressure;BME280_temperature;BME280_humidity;BME280_pressure;Samples;Min_cycle;Max_cycle;Signal;HPM_P1;HPM_P2
2021/01/16 00:00:23;;;;;;;3.87;2.70;;;-0.80;99.90;;;-4.20;100.00;101329.44;4965427;28;100146;-60
2021/01/16 00:02:50;;;;;;;4.27;2.73;;;-1.80;99.90;;;-4.22;100.00;101315.59;4980484;28;100481;-60
2021/01/16 00:05:17;;;;;;;4.13;3.20;;;-1.70;99.90;;;-4.18;100.00;101314.59;4965424;28;100159;-61
2021/01/16 00:07:46;;;;;;;3.10;2.80;;;-1.70;99.90;;;-4.12;100.00;101324.03;4965709;28;100996;-61
2021/01/16 00:10:15;;;;;;;3.50;2.83;;;-1.80;99.90;;;-4.02;100.00;101317.66;4965104;28;100226;-60
2021/01/16 00:12:42;;;;;;;5.43;3.70;;;-1.60;99.90;;;-4.15;100.00;101322.38;4965106;28;101383;-61
2021/01/16 00:15:10;;;;;;;3.90;3.13;;;-1.60;99.90;;;-4.16;100.00;101317.16;4980835;28;103220;-60
2021/01/16 00:17:37;;;;;;;3.87;2.93;;;-1.70;99.90;;;-4.10;100.00;101314.41;4964393;28;101488;-61
2021/01/16 00:20:05;;;;;;;3.53;3.03;;;-1.80;99.90;;;-4.09;100.00;101319.59;4964730;28;99993;-60
2021/01/16 00:22:32;;;;;;;3.30;3.00;;;-1.70;99.90;;;-4.04;100.00;101316.84;4944521;28;100047;-60
2021/01/16 00:24:59;;;;;;;3.97;3.20;;;-1.60;99.90;;;-4.12;100.00;101318.81;4946984;28;100840;-60
2021/01/16 00:27:26;;;;;;;3.73;3.07;;;-1.60;99.90;;;-4.14;100.00;101318.84;4964518;28;100812;-60
2021/01/16 00:29:54;;;;;;;4.00;2.97;;;-1.60;99.90;;;-4.13;100.00;101319.72;4964759;28;100075;-60
2021/01/16 00:32:20;;;;;;;4.10;3.20;;;-1.60;99.90;;;-4.18;100.00;101317.22;4964696;28;100386;-61
2021/01/16 00:34:47;;;;;;;4.80;3.60;;;-1.60;99.90;;;-4.15;100.00;101317.13;4963912;28;100176;-60
2021/01/16 00:37:13;;;;;;;4.07;3.33;;;-1.60;99.90;;;-4.07;100.00;101317.78;4963838;28;101183;-60
2021/01/16 00:39:40;;;;;;;3.93;3.07;;;-1.70;99.90;;;-4.21;100.00;101319.06;4963336;28;100241;-58
2021/01/16 00:42:07;;;;;;;5.67;3.57;;;-1.50;99.90;;;-4.14;100.00;101331.91;4965032;28;100308;-60
2021/01/16 00:44:34;;;;;;;4.27;3.67;;;-1.70;99.90;;;-4.18;100.00;101334.63;4979027;28;102510;-61
2021/01/16 00:47:00;;;;;;;4.63;3.10;;;-1.60;99.90;;;-4.22;100.00;101333.88;4963501;28;100871;-60
2021/01/16 00:49:26;;;;;;;4.37;3.30;;;-1.70;99.90;;;-4.21;100.00;101339.97;4964354;28;100089;-60
2021/01/16 00:51:53;;;;;;;4.63;3.70;;;-1.80;99.90;;;-4.15;100.00;101342.41;4964954;28;100123;-59
2021/01/16 00:54:19;;;;;;;5.63;3.60;;;-1.70;99.90;;;-4.21;100.00;101346.06;4979580;28;103442;-60
2021/01/16 00:56:46;;;;;;;3.63;3.20;;;-1.80;99.90;;;-4.22;100.00;101346.94;4978709;28;102429;-58
2021/01/16 00:59:44;;;;;;;5.60;3.57;;;-1.70;99.90;;;-4.20;100.00;101344.31;4962237;28;100766;-60
2021/01/16 01:02:10;;;;;;;5.30;3.13;;;-1.90;99.90;;;-4.24;100.00;101350.50;4979226;27;100427;-61
2021/01/16 01:04:37;;;;;;;4.80;3.33;;;-1.50;99.90;;;-4.24;100.00;101353.97;4964851;28;101126;-60
2021/01/16 01:07:04;;;;;;;4.17;3.30;;;-1.80;99.90;;;-4.22;100.00;101360.03;4964133;28;100682;-60
2021/01/16 01:09:30;;;;;;;4.17;2.97;;;-1.70;99.90;;;-4.23;100.00;101352.22;4964552;28;100098;-60
2021/01/16 01:11:57;;;;;;;3.53;2.93;;;-1.80;99.90;;;-4.27;100.00;101346.19;4963777;28;100043;-59
2021/01/16 01:14:23;;;;;;;3.70;2.83;;;-1.80;99.90;;;-4.27;100.00;101351.41;4963604;28;101188;-59
2021/01/16 01:16:50;;;;;;;4.03;2.87;;;-1.90;99.90;;;-4.21;100.00;101343.44;4963346;28;101101;-61
2021/01/16 01:19:17;;;;;;;4.57;3.30;;;-0.10;99.90;;;-4.28;100.00;101352.31;4964960;28;100244;-61
2021/01/16 01:21:43;;;;;;;3.20;2.90;;;-1.80;99.90;;;-4.23;100.00;101352.22;4964413;28;100330;-59
2021/01/16 01:24:10;;;;;;;3.77;2.90;;;-1.80;99.90;;;-4.20;100.00;101357.38;4964047;28;101193;-60
2021/01/16 01:26:38;;;;;;;3.83;2.80;;;-1.80;99.90;;;-4.21;100.00;101361.75;4964091;28;101202;-60
2021/01/16 01:29:04;;;;;;;4.10;3.00;;;-1.80;99.90;;;-4.28;100.00;101360.16;4964438;28;100118;-61
2021/01/16 01:31:31;;;;;;;3.50;2.83;;;-1.90;99.90;;;-4.32;100.00;101363.72;4965003;28;100105;-61
2021/01/16 01:33:59;;;;;;;3.33;2.57;;;-1.80;99.90;;;-4.30;100.00;101364.56;4966128;28;101319;-61
2021/01/16 01:36:25;;;;;;;3.73;3.33;;;-1.80;99.90;;;-4.26;100.00;101360.13;4966492;28;100432;-62
2021/01/16 01:38:52;;;;;;;4.17;3.40;;;-1.80;99.90;;;-4.25;100.00;101360.09;4966528;28;100103;-61
2021/01/16 01:41:19;;;;;;;5.50;3.27;;;-1.70;99.90;;;-4.30;100.00;101355.84;4966800;27;101365;-61
2021/01/16 01:43:45;;;;;;;4.00;3.13;;;-1.80;99.90;;;-4.30;100.00;101361.94;4967326;28;100685;-60
2021/01/16 01:46:12;;;;;;;4.67;3.70;;;-1.70;99.90;;;-4.25;100.00;101361.84;4966391;28;101427;-60
2021/01/16 01:48:38;;;;;;;4.50;3.07;;;-1.90;99.90;;;-4.30;100.00;101355.84;4967051;28;100270;-61
2021/01/16 01:51:06;;;;;;;5.87;3.43;;;-1.70;99.90;;;-4.25;100.00;101349.63;4967675;28;100364;-60
2021/01/16 01:53:34;;;;;;;3.87;3.33;;;-1.80;99.90;;;-4.22;100.00;101354.78;4967521;28;100997;-61
2021/01/16 01:56:03;;;;;;;4.90;3.67;;;-1.70;99.90;;;-4.31;100.00;101354.13;4967442;28;100605;-61
2021/01/16 01:58:31;;;;;;;3.93;3.20;;;-1.80;99.90;;;-4.36;100.00;101352.53;4967808;28;100179;-61
2021/01/16 02:00:58;;;;;;;4.27;3.50;;;-1.60;99.90;;;-4.36;100.00;101356.88;4966910;28;100076;-61
2021/01/16 02:03:25;;;;;;;4.03;3.30;;;-1.80;99.90;;;-4.44;100.00;101351.84;4981436;28;101119;-61
2021/01/16 02:05:55;;;;;;;5.20;3.90;;;-1.70;99.90;;;-4.39;100.00;101355.19;4966544;28;101843;-60
2021/01/16 02:08:23;;;;;;;4.20;2.90;;;-1.70;99.90;;;-4.41;100.00;101354.38;4967718;28;100425;-61
2021/01/16 02:10:50;;;;;;;4.27;3.40;;;-1.70;99.90;;;-4.50;100.00;101354.59;4966752;28;100431;-61
2021/01/16 02:13:17;;;;;;;4.03;3.00;;;-1.80;99.90;;;-4.45;100.00;101351.91;4966596;28;100914;-60
2021/01/16 02:15:51;;;;;;;4.57;3.43;;;-1.80;99.90;;;-4.38;100.00;101348.22;4965798;28;101210;-61
2021/01/16 02:18:27;;;;;;;3.87;3.27;;;-2.00;99.90;;;-4.54;100.00;101339.03;4967329;28;100010;-60
2021/01/16 02:20:56;;;;;;;4.80;3.30;;;-1.90;99.90;;;-4.34;100.00;101347.25;4967080;28;100176;-60
2021/01/16 02:23:49;;;;;;;3.87;3.03;;;-1.80;99.90;;;-4.54;100.00;101342.50;4966118;28;101357;-60
2021/01/16 02:26:50;;;;;;;3.90;3.37;;;-1.90;99.90;;;-4.64;100.00;101348.00;4966156;28;101206;-61
2021/01/16 02:29:18;;;;;;;4.57;3.27;;;-1.80;99.90;;;-4.60;100.00;101347.03;4966229;28;100339;-61
2021/01/16 02:31:55;;;;;;;4.53;3.50;;;-2.00;99.90;;;-4.57;100.00;101353.03;4967041;28;100362;-61
2021/01/16 02:34:27;;;;;;;4.10;3.70;;;-1.90;99.90;;;-4.66;100.00;101349.78;4966889;28;100034;-61
2021/01/16 02:37:32;;;;;;;4.93;3.87;;;-1.90;99.90;;;-4.62;100.00;101348.81;4967137;28;100466;-60
2021/01/16 02:40:11;;;;;;;4.03;3.13;;;-2.60;99.90;;;-4.63;100.00;101354.94;4966025;28;101410;-61
2021/01/16 02:42:45;;;;;;;3.70;3.17;;;-2.10;99.90;;;-4.67;100.00;101359.38;4967303;28;100230;-61
2021/01/16 02:45:18;;;;;;;6.93;3.47;;;-2.00;99.90;;;-4.69;100.00;101353.31;4967101;28;100988;-61
2021/01/16 02:47:56;;;;;;;4.07;3.57;;;-2.00;99.90;;;-4.59;100.00;101349.63;4966565;28;101536;-61
2021/01/16 02:50:28;;;;;;;5.97;3.60;;;-2.10;99.90;;;-4.69;100.00;101348.09;4966490;28;100065;-60
2021/01/16 02:52:58;;;;;;;3.43;3.07;;;-2.00;99.90;;;-4.61;100.00;101345.31;4966326;28;100217;-60
2021/01/16 02:55:25;;;;;;;6.17;3.37;;;-2.10;99.90;;;-4.68;100.00;101338.50;4965244;28;101322;-61
2021/01/16 02:57:51;;;;;;;4.23;3.40;;;-2.10;99.90;;;-4.68;100.00;101339.38;4966177;28;100790;-61
2021/01/16 03:00:22;;;;;;;4.87;2.00;;;-2.10;99.90;;;-4.72;100.00;101342.97;4966401;28;100509;-61
2021/01/16 03:02:49;;;;;;;2.60;2.13;;;-2.10;99.90;;;-4.80;100.00;101340.50;4966314;28;100070;-61
2021/01/16 03:05:18;;;;;;;3.97;2.70;;;-2.10;99.90;;;-4.73;100.00;101336.88;4966166;28;100762;-60
2021/01/16 03:07:48;;;;;;;5.87;2.43;;;-2.30;99.90;;;-4.78;100.00;101340.47;4966391;28;100870;-61
2021/01/16 03:10:15;;;;;;;4.07;3.33;;;-2.20;99.90;;;-4.86;100.00;101340.66;4966071;28;100087;-61
2021/01/16 03:12:42;;;;;;;3.53;2.40;;;-2.20;99.90;;;-4.96;100.00;101336.56;4966998;28;100174;-61
2021/01/16 03:15:12;;;;;;;3.43;2.67;;;-2.30;99.90;;;-5.01;100.00;101333.19;4966228;28;100809;-60
2021/01/16 03:17:46;;;;;;;3.30;2.97;;;-2.40;99.90;;;-5.08;100.00;101329.88;4965578;28;100693;-60
2021/01/16 03:20:18;;;;;;;4.27;3.50;;;-2.40;99.90;;;-5.09;100.00;101335.13;4964911;28;100214;-61
2021/01/16 03:22:45;;;;;;;5.53;3.60;;;-2.70;99.90;;;-5.14;100.00;101336.97;4966125;28;99999;-60
2021/01/16 03:25:13;;;;;;;5.47;3.67;;;-2.60;99.90;;;-5.14;100.00;101342.19;4965095;28;100654;-61
2021/01/16 03:27:40;;;;;;;3.87;3.07;;;-2.80;99.90;;;-5.14;100.00;101331.75;4965049;28;100806;-61
2021/01/16 03:30:07;;;;;;;3.90;3.13;;;-2.90;99.90;;;-5.15;100.00;101328.28;4965513;28;100002;-62
2021/01/16 03:32:33;;;;;;;3.00;2.70;;;-2.90;99.90;;;-5.14;100.00;101331.75;4965955;27;100185;-61
2021/01/16 03:35:01;;;;;;;4.73;3.70;;;-2.90;99.90;;;-5.10;100.00;101330.78;4965433;28;100868;-62
2021/01/16 03:37:27;;;;;;;5.40;3.80;;;-2.80;99.90;;;-5.12;100.00;101328.22;4966957;28;101597;-61
2021/01/16 03:39:54;;;;;;;5.13;3.70;;;-2.80;99.90;;;-5.08;100.00;101324.66;4965566;28;100173;-60
2021/01/16 03:42:20;;;;;;;4.70;3.60;;;-2.90;99.90;;;-5.08;100.00;101324.66;4965651;28;100149;-60
2021/01/16 03:44:47;;;;;;;5.17;3.90;;;-2.90;99.90;;;-4.99;100.00;101333.16;4964770;28;100776;-60
2021/01/16 03:47:13;;;;;;;4.10;3.37;;;-2.90;99.90;;;-4.99;100.00;101328.78;4965293;28;100624;-61
2021/01/16 03:49:40;;;;;;;4.97;3.83;;;-2.80;99.90;;;-4.92;100.00;101335.56;4966283;28;100379;-61
2021/01/16 03:52:07;;;;;;;4.53;3.80;;;-2.70;99.90;;;-4.92;100.00;101337.31;4965629;28;100355;-61
2021/01/16 03:54:34;;;;;;;5.47;3.90;;;-2.60;99.90;;;-5.00;100.00;101329.69;4965058;28;101015;-64
2021/01/16 03:57:01;;;;;;;4.30;3.70;;;-2.70;99.90;;;-4.93;100.00;101330.38;4963367;28;101034;-61
2021/01/16 03:59:27;;;;;;;4.67;3.57;;;-2.60;99.90;;;-4.90;100.00;101327.72;4965288;28;100124;-60
2021/01/16 04:01:54;;;;;;;6.20;4.07;;;-2.70;99.90;;;-4.92;100.00;101335.56;4965214;28;99988;-60
2021/01/16 04:04:20;;;;;;;6.03;4.10;;;-2.70;99.90;;;-4.95;100.00;101332.19;4979814;28;101350;-63
2021/01/16 04:06:46;;;;;;;4.70;3.43;;;-2.60;99.90;;;-4.97;100.00;101333.97;4964441;28;101333;-61
2021/01/16 04:09:14;;;;;;;5.50;4.23;;;-2.50;99.90;;;-4.87;100.00;101336.34;4964802;28;100053;-62
2021/01/16 04:11:40;;;;;;;4.73;3.37;;;-2.60;99.90;;;-4.89;100.00;101343.34;4964483;28;100374;-61
2021/01/16 04:14:06;;;;;;;6.63;4.03;;;-2.50;99.90;;;-4.89;100.00;101337.25;4964678;28;101345;-61
2021/01/16 04:16:34;;;;;;;5.03;3.57;;;-2.60;99.90;;;-4.86;100.00;101337.19;4964254;28;100604;-61
2021/01/16 04:19:00;;;;;;;6.33;3.77;;;-2.50;99.90;;;-4.96;100.00;101331.34;4965624;28;100287;-61
2021/01/16 04:21:27;;;;;;;6.23;4.00;;;-2.50;99.90;;;-4.87;100.00;101325.91;4964466;28;99979;-61
2021/01/16 04:23:53;;;;;;;6.00;4.00;;;-2.50;99.90;;;-5.04;100.00;101319.34;4964606;28;101221;-61
2021/01/16 04:26:20;;;;;;;4.30;3.90;;;-2.40;99.90;;;-4.98;100.00;101332.25;4965183;28;100446;-61
2021/01/16 04:28:47;;;;;;;6.17;4.00;;;-2.60;99.90;;;-5.11;100.00;101326.47;4965129;28;100274;-61
2021/01/16 04:31:13;;;;;;;6.20;4.40;;;-2.60;99.90;;;-5.08;100.00;101334.22;4965310;28;100213;-61
2021/01/16 04:33:40;;;;;;;4.47;3.87;;;-2.60;99.90;;;-5.08;100.00;101332.47;4964635;28;102022;-62
2021/01/16 04:36:07;;;;;;;5.40;4.03;;;-2.70;99.90;;;-5.17;100.00;101324.81;4964085;28;101035;-62
2021/01/16 04:38:33;;;;;;;5.43;3.63;;;-2.70;99.90;;;-5.21;100.00;101324.94;4964952;28;100041;-61
2021/01/16 04:41:01;;;;;;;5.27;3.83;;;-2.70;99.90;;;-5.09;100.00;101335.97;4964762;28;99963;-61
2021/01/16 04:43:29;;;;;;;4.57;3.83;;;-2.70;99.90;;;-5.09;100.00;101332.50;4965027;28;100750;-62
2021/01/16 04:46:05;;;;;;;6.77;4.10;;;-2.80;99.90;;;-5.14;100.00;101324.78;4964463;28;100799;-61
2021/01/16 04:48:33;;;;;;;6.33;3.63;;;-2.70;99.90;;;-5.08;100.00;101323.78;4957618;28;100043;-61
2021/01/16 04:51:01;;;;;;;9.30;4.70;;;-2.70;99.90;;;-5.02;100.00;101317.56;4965346;28;100231;-61
2021/01/16 04:53:37;;;;;;;5.43;4.10;;;-2.60;99.90;;;-5.02;100.00;101305.38;4964603;28;101204;-60
2021/01/16 04:56:05;;;;;;;5.13;3.93;;;-2.70;99.90;;;-5.02;100.00;101317.56;4964993;28;100260;-62
2021/01/16 04:58:35;;;;;;;7.00;4.03;;;-2.60;99.90;;;-4.99;100.00;101318.34;4964794;28;100188;-62
2021/01/16 05:01:05;;;;;;;7.93;4.03;;;-2.80;99.90;;;-4.99;100.00;101310.53;4964516;28;100172;-60
2021/01/16 05:03:37;;;;;;;7.13;4.83;;;-2.70;99.90;;;-4.95;100.00;101293.91;4964071;28;100690;-61
2021/01/16 05:06:08;;;;;;;6.93;4.43;;;-2.70;99.90;;;-5.02;100.00;101300.16;4964368;28;101360;-61
2021/01/16 05:08:38;;;;;;;6.53;4.87;;;-2.70;99.90;;;-5.06;100.00;101311.53;4965878;28;100236;-61
2021/01/16 05:11:07;;;;;;;5.60;4.23;;;-2.80;99.90;;;-5.01;100.00;101308.84;4967475;28;100264;-61
2021/01/16 05:13:44;;;;;;;7.60;4.90;;;-2.80;99.90;;;-4.98;100.00;101295.72;4967460;28;101020;-61
2021/01/16 05:16:14;;;;;;;7.57;4.60;;;-2.50;99.90;;;-5.01;100.00;101308.84;4967709;28;100702;-61
2021/01/16 05:18:43;;;;;;;6.30;4.37;;;-2.60;99.90;;;-4.87;100.00;101305.00;4967577;28;100040;-61
2021/01/16 05:21:11;;;;;;;5.80;4.47;;;-2.70;99.90;;;-5.06;100.00;101301.97;4968311;28;100125;-63
2021/01/16 05:23:43;;;;;;;5.87;4.50;;;-2.60;99.90;;;-5.03;100.00;101298.44;4967238;28;101868;-62
2021/01/16 05:26:11;;;;;;;5.70;4.30;;;-2.50;99.90;;;-5.04;100.00;101296.72;4968207;28;100496;-61
2021/01/16 05:28:39;;;;;;;5.80;4.73;;;-2.70;99.90;;;-5.00;100.00;101284.44;4968452;28;100319;-62
2021/01/16 05:31:07;;;;;;;6.37;4.00;;;-2.60;99.90;;;-4.96;100.00;101288.72;4967589;28;100253;-61
2021/01/16 05:33:36;;;;;;;5.87;4.20;;;-2.70;99.90;;;-4.98;100.00;101288.75;4967649;28;101362;-63
2021/01/16 05:36:07;;;;;;;6.13;4.10;;;-2.70;99.90;;;-5.05;100.00;101287.16;4966892;28;100948;-63
2021/01/16 05:38:36;;;;;;;6.87;4.23;;;-2.60;99.90;;;-4.98;100.00;101287.91;4967394;28;100400;-64
2021/01/16 05:41:06;;;;;;;5.80;4.53;;;-2.60;99.90;;;-5.01;100.00;101282.75;4967843;28;100201;-63
2021/01/16 05:43:34;;;;;;;14.87;4.70;;;-2.70;99.90;;;-4.87;100.00;101285.88;4966755;27;101395;-63
2021/01/16 05:46:04;;;;;;;7.27;4.40;;;-2.60;99.90;;;-4.90;100.00;101284.19;4967078;28;100672;-63
2021/01/16 05:48:33;;;;;;;6.03;3.93;;;-2.60;99.90;;;-4.96;100.00;101283.50;4966805;28;100144;-63
2021/01/16 05:51:02;;;;;;;5.67;4.30;;;-2.70;99.90;;;-4.98;100.00;101287.91;4967125;28;100306;-62
2021/01/16 05:53:29;;;;;;;4.80;3.70;;;-2.60;99.90;;;-4.96;100.00;101283.50;4966982;28;101464;-63
2021/01/16 05:55:58;;;;;;;6.23;4.40;;;-1.50;99.90;;;-4.98;100.00;101300.94;4966931;28;100546;-63
2021/01/16 05:58:31;;;;;;;5.27;4.70;;;-2.60;99.90;;;-4.92;100.00;101282.50;4967335;28;100085;-63
2021/01/16 06:01:05;;;;;;;5.80;4.17;;;-2.50;99.90;;;-4.90;100.00;101283.34;4967243;27;100131;-63
2021/01/16 06:03:35;;;;;;;6.47;4.83;;;-2.70;99.90;;;-4.96;100.00;101279.13;4967421;28;101165;-62
2021/01/16 06:06:02;;;;;;;6.57;4.50;;;-2.40;99.90;;;-4.93;100.00;101283.41;4967172;28;101499;-62
2021/01/16 06:08:30;;;;;;;5.50;4.03;;;-2.60;99.90;;;-4.92;100.00;101280.75;4966932;28;99748;-62
2021/01/16 06:10:57;;;;;;;6.10;4.27;;;-2.60;99.90;;;-4.94;100.00;101285.16;4967041;28;100031;-62
2021/01/16 06:13:25;;;;;;;7.33;4.47;;;-2.50;99.90;;;-4.84;100.00;101278.00;4966239;28;101509;-62
2021/01/16 06:15:54;;;;;;;6.07;4.07;;;-2.60;99.90;;;-4.90;100.00;101278.97;4966054;28;100989;-60
2021/01/16 06:18:25;;;;;;;6.33;4.90;;;-2.50;99.90;;;-4.82;100.00;101277.03;4967016;28;100102;-63
2021/01/16 06:20:54;;;;;;;5.30;3.70;;;-2.60;99.90;;;-4.86;100.00;101280.63;4967144;28;100316;-62
2021/01/16 06:23:24;;;;;;;5.63;4.30;;;-2.60;99.90;;;-4.93;100.00;101271.22;4967344;28;100995;-60
2021/01/16 06:25:56;;;;;;;6.13;4.23;;;-2.50;99.90;;;-4.88;100.00;101273.72;4966727;28;100784;-63
2021/01/16 06:28:26;;;;;;;6.73;4.53;;;-2.50;99.90;;;-4.87;100.00;101271.06;4966868;28;100191;-62
2021/01/16 06:30:58;;;;;;;7.80;5.27;;;-2.40;99.90;;;-4.92;100.00;101269.47;4967505;28;100048;-63
2021/01/16 06:33:30;;;;;;;7.27;4.97;;;-2.60;99.90;;;-4.91;100.00;101266.81;4966512;28;102098;-62
2021/01/16 06:36:02;;;;;;;5.73;4.37;;;-2.30;99.90;;;-4.89;100.00;101265.03;4966569;28;100610;-62
2021/01/16 06:38:33;;;;;;;6.27;4.73;;;-2.50;99.90;;;-4.91;100.00;101268.56;4967192;28;99987;-62
2021/01/16 06:41:14;;;;;;;6.27;4.87;;;-2.40;99.90;;;-4.94;100.00;101263.41;4966345;28;100577;-62
2021/01/16 06:43:45;;;;;;;18.13;8.60;;;-2.50;99.90;;;-4.88;100.00;101269.34;4963242;28;100712;-62
2021/01/16 06:46:13;;;;;;;10.33;8.23;;;-1.60;99.90;;;-4.85;100.00;101256.25;4963704;28;101158;-62
2021/01/16 06:48:43;;;;;;;10.33;6.80;;;-2.50;99.90;;;-4.94;100.00;101259.06;4963769;28;100222;-62
2021/01/16 06:51:13;;;;;;;11.70;8.30;;;-2.60;99.90;;;-5.02;100.00;101258.38;4963791;28;100082;-61
2021/01/16 06:53:39;;;;;;;9.33;7.17;;;-2.60;99.90;;;-5.02;100.00;101254.91;4963307;28;101171;-62
2021/01/16 06:56:09;;;;;;;8.37;5.60;;;-2.50;99.90;;;-5.01;100.00;101267.94;4963354;28;100811;-62
2021/01/16 06:58:42;;;;;;;8.17;5.50;;;-2.60;99.90;;;-4.97;100.00;101259.16;4964072;28;100119;-63
2021/01/16 07:01:11;;;;;;;10.30;6.37;;;-2.60;99.90;;;-4.87;100.00;101255.41;4963239;28;100016;-63
2021/01/16 07:03:46;;;;;;;13.47;6.03;;;-2.60;99.90;;;-4.98;100.00;101251.34;4962775;28;100830;-63
2021/01/16 07:06:14;;;;;;;8.90;5.43;;;-2.50;99.90;;;-5.06;100.00;101260.19;4963861;28;100666;-65
2021/01/16 07:08:42;;;;;;;7.73;5.57;;;-2.60;99.90;;;-4.99;100.00;101254.84;4963691;28;100145;-62
2021/01/16 07:11:10;;;;;;;6.60;4.90;;;-2.50;99.90;;;-5.10;100.00;101253.38;4963022;28;100013;-64
2021/01/16 07:13:42;;;;;;;7.57;5.90;;;-2.60;99.90;;;-5.02;100.00;101253.16;4963530;28;101088;-64
2021/01/16 07:16:10;;;;;;;12.33;6.27;;;-2.50;99.90;;;-4.90;100.00;101252.88;4966358;28;100538;-61
2021/01/16 07:18:39;;;;;;;7.50;5.13;;;-2.50;99.90;;;-5.02;100.00;101249.69;4963014;28;100272;-62
2021/01/16 07:21:08;;;;;;;12.20;6.63;;;-1.80;99.90;;;-5.01;100.00;101249.66;4963462;28;100649;-62
2021/01/16 07:23:35;;;;;;;10.53;6.90;;;-2.60;99.90;;;-5.01;100.00;101246.19;4962879;28;100963;-61
2021/01/16 07:26:03;;;;;;;9.53;5.97;;;-2.60;99.90;;;-5.01;100.00;101251.41;4962691;28;101047;-61
2021/01/16 07:28:30;;;;;;;9.10;5.93;;;-2.50;99.90;;;-4.97;100.00;101253.06;4962995;28;100316;-66
2021/01/16 07:30:57;;;;;;;37.43;8.33;;;-2.50;99.90;;;-4.89;100.00;101249.38;4976061;27;100494;-64
2021/01/16 07:33:29;;;;;;;10.80;6.03;;;-2.50;99.90;;;-5.00;100.00;101251.38;4962697;28;101078;-65
2021/01/16 07:35:57;;;;;;;11.23;7.40;;;-2.70;99.90;;;-4.91;100.00;101251.16;4976723;28;100831;-63
2021/01/16 07:38:27;;;;;;;11.33;7.70;;;-2.60;99.90;;;-4.95;100.00;101253.91;4963531;28;100535;-61
2021/01/16 07:40:57;;;;;;;12.10;7.77;;;-2.60;99.90;;;-4.93;100.00;101246.84;4962410;28;100247;-64
2021/01/16 07:43:57;;;;;;;50.93;10.63;;;-2.60;99.90;;;-4.79;100.00;101242.16;4963209;28;100687;-62
2021/01/16 07:46:44;;;;;;;29.40;8.13;;;-2.50;99.90;;;-4.83;100.00;101243.16;4963327;28;100173;-62
2021/01/16 07:49:19;;;;;;;10.60;7.70;;;-2.40;99.90;;;-4.89;100.00;101238.94;4962662;28;99852;-60
2021/01/16 07:51:52;;;;;;;9.03;6.67;;;-2.70;99.90;;;-4.87;100.00;101239.75;4962630;28;100078;-65
2021/01/16 07:54:23;;;;;;;11.37;7.30;;;-2.50;99.90;;;-4.87;100.00;101236.28;4962692;28;101060;-63
2021/01/16 07:56:59;;;;;;;10.73;6.67;;;-2.50;99.90;;;-4.89;100.00;101232.84;4959738;28;100255;-62
2021/01/16 07:59:33;;;;;;;48.03;10.30;;;-2.40;99.90;;;-4.64;100.00;101231.34;4953386;28;100609;-62
2021/01/16 08:03:02;;;;;;;13.43;8.40;;;-2.40;99.90;;;-4.78;100.00;101238.66;4962246;27;100436;-63
2021/01/16 08:05:39;;;;;;;9.13;6.10;;;-2.30;99.90;;;-4.85;100.00;101230.13;4962799;27;100796;-63
2021/01/16 08:08:46;;;;;;;13.13;6.40;;;-2.50;99.90;;;-4.81;100.00;101230.91;4962999;28;100527;-63
2021/01/16 08:11:16;;;;;;;8.87;6.53;;;-2.40;99.90;;;-4.80;100.00;101230.84;4977038;28;100236;-64
2021/01/16 08:13:51;;;;;;;11.97;6.77;;;-1.60;99.90;;;-4.75;100.00;101223.78;4963117;28;100128;-65
2021/01/16 08:16:18;;;;;;;11.27;7.07;;;-2.40;99.90;;;-4.67;100.00;101220.97;4962092;27;100357;-61
2021/01/16 08:18:48;;;;;;;10.97;7.23;;;-2.40;99.90;;;-4.71;100.00;101216.75;4962104;28;100435;-62
2021/01/16 08:21:16;;;;;;;8.37;6.07;;;-2.50;99.90;;;-4.74;100.00;101222.03;4962137;28;99962;-62
2021/01/16 08:23:49;;;;;;;9.03;6.57;;;-2.40;99.90;;;-4.67;100.00;101212.28;4961719;28;100091;-65
2021/01/16 08:26:20;;;;;;;7.67;5.43;;;-2.40;99.90;;;-4.71;100.00;101212.38;4962112;27;100866;-62
2021/01/16 08:28:49;;;;;;;13.30;7.23;;;-2.50;99.90;;;-4.69;100.00;101214.91;4962693;28;100797;-62
2021/01/16 08:31:27;;;;;;;8.77;5.30;;;-2.40;99.90;;;-4.62;100.00;101218.25;4963202;28;100192;-62
2021/01/16 08:33:54;;;;;;;10.80;7.13;;;-2.40;99.90;;;-4.65;100.00;101207.88;4956121;27;100839;-65
2021/01/16 08:36:22;;;;;;;8.40;7.03;;;-2.30;99.90;;;-4.60;100.00;101208.63;4943349;28;101099;-63
2021/01/16 08:38:50;;;;;;;9.00;7.00;;;-2.20;99.90;;;-4.61;100.00;101204.28;4946554;28;100053;-62
2021/01/16 08:41:24;;;;;;;10.67;7.30;;;-2.20;99.90;;;-4.58;100.00;101197.25;4962382;28;100193;-64
2021/01/16 08:43:54;;;;;;;14.53;7.13;;;-2.20;99.90;;;-4.50;100.00;101195.28;4976545;28;100398;-63
2021/01/16 08:46:26;;;;;;;12.77;8.30;;;-2.20;99.90;;;-4.33;100.00;101194.81;4961475;28;101528;-64
2021/01/16 08:49:00;;;;;;;12.70;6.63;;;-2.20;99.90;;;-4.47;100.00;101189.13;4961420;28;100842;-64
2021/01/16 08:51:32;;;;;;;9.70;6.47;;;-2.10;99.90;;;-4.51;100.00;101193.56;4962302;28;100230;-63
2021/01/16 08:54:07;;;;;;;9.73;6.53;;;-2.20;99.90;;;-4.49;100.00;101207.44;4961881;28;100125;-64
2021/01/16 08:56:34;;;;;;;8.73;6.07;;;-2.00;99.90;;;-4.45;100.00;101200.38;4961450;28;100799;-64
2021/01/16 08:59:21;;;;;;;9.33;6.83;;;-2.00;99.90;;;-4.43;100.00;101194.19;4961625;28;100620;-64
2021/01/16 09:01:51;;;;;;;10.17;6.10;;;-1.90;99.90;;;-4.39;100.00;101200.19;4961932;28;100415;-63
2021/01/16 09:04:19;;;;;;;11.77;6.90;;;-2.00;99.90;;;-4.30;100.00;101199.09;4962902;28;100026;-64
2021/01/16 09:06:46;;;;;;;9.23;7.17;;;-1.90;99.90;;;-4.33;100.00;101192.22;4961619;28;101078;-63
2021/01/16 09:09:15;;;;;;;9.90;6.63;;;-1.10;99.90;;;-4.31;100.00;101198.22;4961832;28;100490;-63
2021/01/16 09:12:06;;;;;;;8.77;6.00;;;-1.90;99.90;;;-4.27;100.00;101204.22;4960916;28;99885;-63
2021/01/16 09:14:36;;;;;;;9.07;6.30;;;-0.50;99.90;;;-4.14;100.00;101201.25;4961316;28;100368;-64
2021/01/16 09:17:24;;;;;;;9.00;6.60;;;-1.90;99.90;;;-4.16;100.00;101189.97;4961881;28;101029;-63
2021/01/16 09:19:58;;;;;;;9.90;6.80;;;-1.80;99.90;;;-4.23;100.00;101191.06;4961565;28;100920;-63
2021/01/16 09:22:27;;;;;;;12.43;7.27;;;-1.70;99.90;;;-4.14;100.00;101192.53;4961930;28;100253;-63
2021/01/16 09:25:22;;;;;;;11.93;7.67;;;-1.80;99.90;;;-4.21;100.00;101180.56;4961437;28;99990;-64
2021/01/16 09:27:55;;;;;;;10.10;7.33;;;-1.60;99.90;;;-4.09;100.00;101181.06;4951997;28;101141;-64
2021/01/16 09:30:23;;;;;;;11.37;7.00;;;-1.60;99.90;;;-4.13;100.00;101182.03;4962140;28;100746;-63
2021/01/16 09:32:51;;;;;;;9.77;6.90;;;-1.60;99.90;;;-4.07;100.00;101183.59;4961620;28;100277;-64
2021/01/16 09:35:37;;;;;;;10.70;7.63;;;-0.70;99.90;;;-4.07;100.00;101184.47;4961233;28;100315;-63
2021/01/16 09:38:15;;;;;;;10.67;6.77;;;-1.60;99.90;;;-4.02;100.00;101181.72;4960979;28;101461;-64
2021/01/16 09:40:41;;;;;;;10.37;6.83;;;-1.60;99.90;;;-4.02;100.00;101181.72;4960749;28;100196;-63
2021/01/16 09:43:16;;;;;;;9.50;7.57;;;-1.60;99.90;;;-3.98;100.00;101180.75;4961076;28;100284;-62
2021/01/16 09:45:51;;;;;;;9.60;7.33;;;-1.20;99.90;;;-3.94;100.00;101179.75;4961636;28;100258;-63
2021/01/16 09:48:41;;;;;;;8.17;6.30;;;-1.50;99.90;;;-3.97;100.00;101172.00;4961000;28;100544;-64
2021/01/16 09:51:09;;;;;;;7.30;6.60;;;-1.40;99.90;;;-3.98;100.00;101175.53;4961499;27;100501;-63
2021/01/16 09:53:36;;;;;;;12.07;6.90;;;-1.40;99.90;;;-4.00;100.00;101175.56;4962115;28;100353;-62
2021/01/16 09:56:04;;;;;;;10.37;6.63;;;-1.40;99.90;;;-4.04;100.00;101167.84;4964730;28;100248;-61
2021/01/16 09:58:36;;;;;;;11.57;7.73;;;-1.50;99.90;;;-4.03;100.00;101169.56;4964172;27;100258;-63
2021/01/16 10:01:19;;;;;;;11.53;7.70;;;-1.40;99.90;;;-3.93;100.00;101160.53;4964804;28;100804;-61
2021/01/16 10:03:47;;;;;;;15.00;9.17;;;-1.50;99.90;;;-3.94;100.00;101165.81;4964222;28;100174;-63
2021/01/16 10:06:17;;;;;;;12.27;7.40;;;-1.50;99.90;;;-3.94;100.00;101160.59;4964900;27;100397;-62
2021/01/16 10:08:45;;;;;;;7.87;6.70;;;-1.40;99.90;;;-3.94;100.00;101163.19;4967521;28;101547;-63
2021/01/16 10:11:14;;;;;;;10.50;7.40;;;-1.50;99.90;;;-3.92;100.00;101156.16;4964646;28;101409;-61